createdAt,value
2019-03-18T00:04:03.827Z,100282.59
2019-03-18T00:09:06.555Z,100296.30
2019-03-18T00:14:09.260Z,100301.57
2019-03-18T00:19:12.053Z,100298.97
2019-03-18T00:24:14.779Z,100295.58
2019-03-18T00:29:17.469Z,100294.83
2019-03-18T00:34:20.157Z,100310.45
2019-03-18T00:39:22.852Z,100312.00
2019-03-18T00:44:25.543Z,100306.80
2019-03-18T00:49:28.265Z,100326.65
2019-03-18T00:54:30.968Z,100335.81
2019-03-18T00:59:33.689Z,100332.24
2019-03-18T01:04:36.400Z,100321.02
2019-03-18T01:09:39.146Z,100314.59
2019-03-18T01:14:41.881Z,100324.45
2019-03-18T01:19:44.576Z,100333.86
2019-03-18T01:24:47.414Z,100342.63
2019-03-18T01:29:50.130Z,100348.66
2019-03-18T01:34:52.837Z,100348.11
2019-03-18T01:39:55.834Z,100344.73
2019-03-18T01:44:58.546Z,100348.03
2019-03-18T01:50:01.263Z,100343.66
2019-03-18T01:55:04.392Z,100335.47
2019-03-18T02:00:07.916Z,100339.49
2019-03-18T02:05:10.697Z,100333.19
2019-03-18T02:10:13.617Z,100342.83
2019-03-18T02:15:16.329Z,100355.87
2019-03-18T02:20:19.982Z,100356.34
2019-03-18T02:25:22.909Z,100350.24
2019-03-18T02:30:25.603Z,100356.78
2019-03-18T02:35:28.420Z,100368.72
2019-03-18T02:40:31.110Z,100367.41
2019-03-18T02:45:33.806Z,100367.13
2019-03-18T02:50:36.516Z,100369.06
2019-03-18T02:55:39.214Z,100366.66
2019-03-18T03:00:42.173Z,100378.32
2019-03-18T03:05:44.904Z,100396.80
2019-03-18T03:10:47.618Z,100395.27
2019-03-18T03:15:50.385Z,100410.78
2019-03-18T03:20:53.103Z,100404.17
2019-03-18T03:25:55.828Z,100402.08
2019-03-18T03:30:58.564Z,100413.89
2019-03-18T03:36:01.303Z,100413.38
2019-03-18T03:41:04.421Z,100416.92
2019-03-18T03:46:07.299Z,100432.56
2019-03-18T03:51:10.063Z,100435.59
2019-03-18T03:56:13.194Z,100423.69
2019-03-18T04:01:16.070Z,100429.72
2019-03-18T04:06:18.790Z,100435.30
2019-03-18T04:11:21.626Z,100434.58
2019-03-18T04:16:24.320Z,100449.42
2019-03-18T04:21:27.135Z,100464.91
2019-03-18T04:26:29.840Z,100473.86
2019-03-18T04:31:32.592Z,100476.79
2019-03-18T04:36:35.457Z,100471.08
2019-03-18T04:41:38.361Z,100486.32
2019-03-18T04:46:41.052Z,100486.67
2019-03-18T04:51:43.937Z,100500.63
2019-03-18T04:56:46.724Z,100498.53
2019-03-18T05:01:49.583Z,100512.95
2019-03-18T05:06:52.506Z,100505.03
2019-03-18T05:11:55.969Z,100500.36
2019-03-18T05:16:58.670Z,100505.42
2019-03-18T05:22:01.398Z,100513.36
2019-03-18T05:27:04.117Z,100514.66
2019-03-18T05:32:06.853Z,100531.81
2019-03-18T05:37:09.570Z,100528.52
2019-03-18T05:42:12.285Z,100539.66
2019-03-18T05:47:14.999Z,100551.52
2019-03-18T05:52:17.697Z,100561.51
2019-03-18T05:57:20.435Z,100579.86
2019-03-18T06:02:23.156Z,100588.98
2019-03-18T06:07:25.863Z,100587.89
2019-03-18T06:12:28.568Z,100608.50
2019-03-18T06:17:31.301Z,100606.03
2019-03-18T06:22:34.045Z,100616.41
2019-03-18T06:27:36.909Z,100624.56
2019-03-18T06:32:39.664Z,100630.54
2019-03-18T06:37:42.496Z,100626.03
2019-03-18T06:42:45.416Z,100641.00
2019-03-18T06:47:48.118Z,100641.63
2019-03-18T06:52:50.838Z,100654.49
2019-03-18T06:57:53.636Z,100658.39
2019-03-18T07:02:56.355Z,100659.98
2019-03-18T07:07:59.105Z,100666.53
2019-03-18T07:13:01.809Z,100670.80
2019-03-18T07:18:17.474Z,100674.68
2019-03-18T07:23:10.297Z,100679.83
2019-03-18T07:28:14.175Z,100680.13
2019-03-18T07:33:17.116Z,100687.72
2019-03-18T07:38:19.859Z,100697.58
2019-03-18T07:43:22.662Z,100702.51
2019-03-18T07:48:30.940Z,100715.19
2019-03-18T07:53:29.988Z,100724.84
2019-03-18T07:58:32.775Z,100729.59
2019-03-18T08:03:36.723Z,100737.94
2019-03-18T08:08:39.833Z,100732.23
2019-03-18T08:13:42.624Z,100744.72
2019-03-18T08:18:45.342Z,100768.38
2019-03-18T08:23:48.086Z,100754.73
2019-03-18T08:28:50.779Z,100756.92
2019-03-18T08:33:53.506Z,100778.73
2019-03-18T08:38:56.214Z,100775.73
2019-03-18T08:43:58.934Z,100782.42
2019-03-18T08:49:01.654Z,100791.91
2019-03-18T08:54:04.952Z,100798.12
2019-03-18T08:59:10.867Z,100814.83
2019-03-18T09:04:13.565Z,100804.52
2019-03-18T09:09:16.258Z,100824.90
2019-03-18T09:14:18.957Z,100827.61
2019-03-18T09:19:21.649Z,100835.16
2019-03-18T09:24:24.343Z,100837.59
2019-03-18T09:29:27.055Z,100856.20
2019-03-18T09:34:29.775Z,100853.98
2019-03-18T09:39:32.523Z,100853.70
2019-03-18T09:44:35.243Z,100856.58
2019-03-18T09:49:37.957Z,100853.09
2019-03-18T09:54:40.681Z,100848.03
2019-03-18T09:59:43.473Z,100852.80
2019-03-18T10:04:46.193Z,100870.41
2019-03-18T10:09:48.925Z,100871.94
2019-03-18T10:14:51.641Z,100870.14
2019-03-18T10:19:54.347Z,100872.01
2019-03-18T10:24:57.070Z,100872.64
2019-03-18T10:29:59.782Z,100905.02
2019-03-18T10:35:02.607Z,100953.49
2019-03-18T10:40:07.384Z,100960.45
2019-03-18T10:45:10.210Z,100958.16
2019-03-18T10:50:13.131Z,100943.05
2019-03-18T10:55:15.857Z,100956.41
2019-03-18T11:00:19.289Z,100984.80
2019-03-18T11:05:22.620Z,101009.69
2019-03-18T11:10:25.526Z,100995.56
2019-03-18T11:15:28.221Z,101005.25
2019-03-18T11:20:30.929Z,100999.47
2019-03-18T11:25:33.637Z,100983.32
2019-03-18T11:30:36.350Z,100986.13
2019-03-18T11:35:39.607Z,100971.00
2019-03-18T11:40:42.308Z,100984.38
2019-03-18T11:45:45.004Z,100996.02
2019-03-18T11:50:48.553Z,100990.66
2019-03-18T11:55:51.479Z,100978.36
2019-03-18T12:00:54.595Z,100973.67
2019-03-18T12:05:57.403Z,100964.80
2019-03-18T12:11:00.119Z,100961.28
2019-03-18T12:16:02.958Z,100963.38
2019-03-18T12:21:05.721Z,100971.20
2019-03-18T12:26:08.702Z,100979.34
2019-03-18T12:31:11.682Z,101062.77
2019-03-18T12:36:14.388Z,101036.66
2019-03-18T12:41:17.121Z,101044.81
2019-03-18T12:46:19.845Z,101048.76
2019-03-18T12:51:22.670Z,101057.87
2019-03-18T12:56:25.384Z,101043.13
2019-03-18T13:01:30.007Z,101041.97
2019-03-18T13:06:33.662Z,101052.06
2019-03-18T13:11:36.499Z,101053.64
2019-03-18T13:16:39.244Z,101055.14
2019-03-18T13:21:41.973Z,101050.85
2019-03-18T13:26:44.669Z,101051.11
2019-03-18T13:31:47.425Z,100993.17
2019-03-18T13:36:50.152Z,101061.01
2019-03-18T13:41:52.873Z,101066.09
2019-03-18T13:46:55.601Z,101063.19
2019-03-18T13:51:58.325Z,101071.08
2019-03-18T13:57:01.056Z,101081.34
2019-03-18T14:02:03.813Z,101071.11
2019-03-18T14:07:06.533Z,101086.45
2019-03-18T14:12:09.297Z,101089.27
2019-03-18T14:17:12.257Z,101097.96
2019-03-18T14:22:15.070Z,101112.84
2019-03-18T14:27:17.785Z,101128.62
2019-03-18T14:32:20.517Z,101139.98
2019-03-18T14:37:23.231Z,101123.61
2019-03-18T14:42:25.952Z,101143.49
2019-03-18T14:47:28.653Z,101134.27
2019-03-18T14:52:31.368Z,101145.63
2019-03-18T14:57:34.092Z,101163.81
2019-03-18T15:02:36.806Z,101163.45
2019-03-18T15:07:39.558Z,101185.61
2019-03-18T15:12:42.354Z,101198.41
2019-03-18T15:17:45.179Z,101199.61
2019-03-18T15:22:47.918Z,101231.47
2019-03-18T15:27:50.638Z,101243.85
2019-03-18T15:32:53.378Z,101213.11
2019-03-18T15:37:56.120Z,101205.31
2019-03-18T15:42:58.838Z,101209.52
2019-03-18T15:48:01.560Z,101222.45
2019-03-18T15:53:04.289Z,101223.34
2019-03-18T15:58:07.173Z,101230.27
2019-03-18T16:03:09.903Z,101243.84
2019-03-18T16:08:12.613Z,101281.59
2019-03-18T16:13:15.344Z,101284.60
2019-03-18T16:18:18.054Z,101286.14
2019-03-18T16:23:20.806Z,101289.63
2019-03-18T16:28:23.497Z,101295.30
2019-03-18T16:33:26.212Z,101300.73
2019-03-18T16:38:28.922Z,101312.69
2019-03-18T16:43:31.637Z,101316.25
2019-03-18T16:48:35.310Z,101321.71
2019-03-18T16:53:38.937Z,101336.53
2019-03-18T16:58:44.982Z,101330.81
2019-03-18T17:03:49.453Z,101343.88
2019-03-18T17:08:53.608Z,101336.16
2019-03-18T17:13:57.506Z,101348.53
2019-03-18T17:19:01.742Z,101347.41
2019-03-18T17:24:05.956Z,101368.41
2019-03-18T17:29:08.762Z,101364.38
2019-03-18T17:34:11.467Z,101389.09
2019-03-18T17:39:15.424Z,101393.01
2019-03-18T17:44:18.303Z,101412.10
2019-03-18T17:49:21.024Z,101407.36
2019-03-18T17:54:23.727Z,101417.91
2019-03-18T17:59:26.422Z,101426.25
2019-03-18T18:04:29.105Z,101431.58
2019-03-18T18:09:31.815Z,101438.52
2019-03-18T18:14:34.721Z,101441.09
2019-03-18T18:19:37.407Z,101445.02
2019-03-18T18:24:40.101Z,101451.99
2019-03-18T18:29:42.790Z,101458.95
2019-03-18T18:34:45.488Z,101471.25
2019-03-18T18:39:48.241Z,101486.92
2019-03-18T18:44:50.950Z,101493.89
2019-03-18T18:49:54.098Z,101500.37
2019-03-18T18:54:56.867Z,101506.41
2019-03-18T18:59:59.650Z,101519.02
2019-03-18T19:05:02.539Z,101520.39
2019-03-18T19:10:05.969Z,101528.67
2019-03-18T19:15:13.134Z,101528.67
2019-03-18T19:20:15.828Z,101534.34
2019-03-18T19:25:18.695Z,101539.15
2019-03-18T19:30:21.473Z,101558.58
2019-03-18T19:35:24.225Z,101592.77
2019-03-18T19:40:26.924Z,101596.32
2019-03-18T19:45:30.490Z,101599.46
2019-03-18T19:50:33.334Z,101597.30
2019-03-18T19:55:36.095Z,101593.80
2019-03-18T20:00:38.857Z,101591.23
2019-03-18T20:05:41.842Z,101589.96
2019-03-18T20:10:45.657Z,101597.80
2019-03-18T20:15:48.648Z,101605.63
2019-03-18T20:20:51.418Z,101614.73
2019-03-18T20:25:54.493Z,101622.09
2019-03-18T20:30:57.243Z,101632.50
2019-03-18T20:35:59.943Z,101645.48
2019-03-18T20:41:02.684Z,101645.94
2019-03-18T20:46:05.650Z,101657.63
2019-03-18T20:51:08.391Z,101667.14
2019-03-18T20:56:11.121Z,101683.60
2019-03-18T21:01:13.859Z,101676.66
2019-03-18T21:06:16.683Z,101689.23
2019-03-18T21:11:19.402Z,101684.48
2019-03-18T21:16:22.178Z,101681.88
2019-03-18T21:21:24.880Z,101687.53
2019-03-18T21:26:27.597Z,101697.90
2019-03-18T21:31:30.329Z,101705.71
2019-03-18T21:36:37.758Z,101707.42
2019-03-18T21:41:37.719Z,101717.39
2019-03-18T21:46:40.466Z,101723.02
2019-03-18T21:51:43.209Z,101729.49
2019-03-18T21:56:45.965Z,101725.57
2019-03-18T22:01:48.735Z,101728.59
2019-03-18T22:06:51.476Z,101733.33
2019-03-18T22:11:54.186Z,101732.91
2019-03-18T22:16:56.905Z,101739.86
2019-03-18T22:21:59.619Z,101735.53
2019-03-18T22:27:02.322Z,101742.84
2019-03-18T22:32:05.030Z,101747.61
2019-03-18T22:37:07.780Z,101760.17
2019-03-18T22:42:10.521Z,101752.75
2019-03-18T22:47:13.322Z,101758.77
2019-03-18T22:52:16.057Z,101759.59
2019-03-18T22:57:18.802Z,101754.34
2019-03-18T23:02:21.640Z,101759.55
2019-03-18T23:07:24.381Z,101765.60
2019-03-18T23:12:27.109Z,101767.72
2019-03-18T23:17:29.838Z,101778.98
2019-03-18T23:22:32.558Z,101768.09
2019-03-18T23:27:35.267Z,101778.01
2019-03-18T23:32:37.981Z,101780.59
2019-03-18T23:37:40.716Z,101780.59
2019-03-18T23:42:43.429Z,101788.79
2019-03-18T23:47:46.146Z,101789.66
2019-03-18T23:52:48.888Z,101801.74
2019-03-18T23:57:51.603Z,101801.27
